createdAt,value
2023-01-10T00:00:46.182Z,7.00
2023-01-10T00:01:46.547Z,6.99
2023-01-10T00:02:46.959Z,6.97
2023-01-10T00:03:47.213Z,6.97
2023-01-10T00:04:47.608Z,6.99
2023-01-10T00:05:47.964Z,6.97
2023-01-10T00:06:48.278Z,6.97
2023-01-10T00:07:48.662Z,6.96
2023-01-10T00:08:48.975Z,6.95
2023-01-10T00:09:49.347Z,6.92
2023-01-10T00:10:49.690Z,6.92
2023-01-10T00:11:50.057Z,6.88
2023-01-10T00:12:50.451Z,6.89
2023-01-10T00:13:50.770Z,6.87
2023-01-10T00:14:51.119Z,6.85
2023-01-10T00:15:51.535Z,6.84
2023-01-10T00:16:51.840Z,6.85
2023-01-10T00:17:52.209Z,6.84
2023-01-10T00:18:52.644Z,6.84
2023-01-10T00:19:52.911Z,6.82
2023-01-10T00:20:53.269Z,6.81
2023-01-10T00:21:53.667Z,6.79
2023-01-10T00:22:54.026Z,6.77
2023-01-10T00:23:54.339Z,6.75
2023-01-10T00:24:54.708Z,6.74
2023-01-10T00:25:55.076Z,6.72
2023-01-10T00:26:55.458Z,6.70
2023-01-10T00:27:55.834Z,6.70
2023-01-10T00:28:56.144Z,6.66
2023-01-10T00:29:56.525Z,6.66
2023-01-10T00:30:56.869Z,6.62
2023-01-10T00:31:57.218Z,6.62
2023-01-10T00:32:57.573Z,6.62
2023-01-10T00:33:57.889Z,6.60
2023-01-10T00:34:58.251Z,6.57
2023-01-10T00:35:58.643Z,6.54
2023-01-10T00:36:58.964Z,6.54
2023-01-10T00:37:59.345Z,6.51
2023-01-10T00:38:59.680Z,6.49
2023-01-10T00:40:00.044Z,6.44
2023-01-10T00:41:00.422Z,6.45
2023-01-10T00:42:00.739Z,6.41
2023-01-10T00:43:01.115Z,6.42
2023-01-10T00:44:01.499Z,6.41
2023-01-10T00:45:01.832Z,6.41
2023-01-10T00:46:02.218Z,6.39
2023-01-10T00:47:02.545Z,6.38
2023-01-10T00:48:02.895Z,6.36
2023-01-10T00:49:03.211Z,6.39
2023-01-10T00:50:03.577Z,6.38
2023-01-10T00:51:03.962Z,6.41
2023-01-10T00:52:04.307Z,6.39
2023-01-10T00:53:04.701Z,6.42
2023-01-10T00:54:05.020Z,6.41
2023-01-10T00:55:05.378Z,6.38
2023-01-10T00:56:05.747Z,6.35
2023-01-10T00:57:06.101Z,6.35
2023-01-10T00:58:06.489Z,6.36
2023-01-10T00:59:06.815Z,6.35
2023-01-10T01:00:07.190Z,6.35
2023-01-10T01:01:07.607Z,6.33
2023-01-10T01:02:07.914Z,6.33
2023-01-10T01:03:08.256Z,6.35
2023-01-10T01:04:08.553Z,6.31
2023-01-10T01:05:08.921Z,6.26
2023-01-10T01:06:09.239Z,6.24
2023-01-10T01:07:09.596Z,6.27
2023-01-10T01:08:09.982Z,6.27
2023-01-10T01:09:10.334Z,6.28
2023-01-10T01:10:10.680Z,6.26
2023-01-10T01:11:11.048Z,6.22
2023-01-10T01:12:11.449Z,6.24
2023-01-10T01:13:11.860Z,6.19
2023-01-10T01:14:12.162Z,6.16
2023-01-10T01:15:12.496Z,6.12
2023-01-10T01:16:12.897Z,6.14
2023-01-10T01:17:13.186Z,6.14
2023-01-10T01:18:13.560Z,6.14
2023-01-10T01:19:13.874Z,6.16
2023-01-10T01:20:14.263Z,6.11
2023-01-10T01:21:14.580Z,6.12
2023-01-10T01:22:14.942Z,6.12
2023-01-10T01:23:15.398Z,6.09
2023-01-10T01:24:15.652Z,6.05
2023-01-10T01:25:16.033Z,6.08
2023-01-10T01:26:16.374Z,6.08
2023-01-10T01:27:16.751Z,6.05
2023-01-10T01:28:17.120Z,6.04
2023-01-10T01:29:18.172Z,5.99
2023-01-10T01:30:17.804Z,5.99
2023-01-10T01:31:18.180Z,5.99
2023-01-10T01:32:18.527Z,5.98
2023-01-10T01:33:18.903Z,5.98
2023-01-10T01:34:19.206Z,5.98
2023-01-10T01:35:19.575Z,5.97
2023-01-10T01:36:19.892Z,5.94
2023-01-10T01:37:20.244Z,5.91
2023-01-10T01:38:20.628Z,5.91
2023-01-10T01:39:20.965Z,5.93
2023-01-10T01:40:21.343Z,5.97
2023-01-10T01:41:21.697Z,6.01
2023-01-10T01:42:22.076Z,6.02
2023-01-10T01:43:22.438Z,6.02
2023-01-10T01:44:22.764Z,6.02
2023-01-10T01:45:23.158Z,6.02
2023-01-10T01:46:23.511Z,6.04
2023-01-10T01:47:23.846Z,6.04
2023-01-10T01:48:24.228Z,6.05
2023-01-10T01:49:24.562Z,6.05
2023-01-10T01:50:24.916Z,6.07
2023-01-10T01:51:25.303Z,6.07
2023-01-10T01:52:25.625Z,6.09
2023-01-10T01:53:26.047Z,6.11
2023-01-10T01:54:26.341Z,6.11
2023-01-10T01:55:26.704Z,6.09
2023-01-10T01:56:27.029Z,6.08
2023-01-10T01:57:27.386Z,6.11
2023-01-10T01:58:27.771Z,6.12
2023-01-10T01:59:28.127Z,6.12
2023-01-10T02:00:28.487Z,6.12
2023-01-10T02:01:28.936Z,6.12
2023-01-10T02:02:29.242Z,6.11
2023-01-10T02:03:29.709Z,6.11
2023-01-10T02:04:29.924Z,6.09
2023-01-10T02:05:30.306Z,6.11
2023-01-10T02:06:30.630Z,6.11
2023-01-10T02:07:30.963Z,6.09
2023-01-10T02:08:31.330Z,6.09
2023-01-10T02:09:31.652Z,6.08
2023-01-10T02:10:32.019Z,6.07
2023-01-10T02:11:32.374Z,6.07
2023-01-10T02:12:32.771Z,6.05
2023-01-10T02:13:33.128Z,6.07
2023-01-10T02:14:33.449Z,6.08
2023-01-10T02:15:33.806Z,6.08
2023-01-10T02:16:34.173Z,6.07
2023-01-10T02:17:34.556Z,6.08
2023-01-10T02:18:34.911Z,6.08
2023-01-10T02:19:35.226Z,6.08
2023-01-10T02:20:35.587Z,6.07
2023-01-10T02:21:35.975Z,6.07
2023-01-10T02:22:36.287Z,6.07
2023-01-10T02:23:36.731Z,6.08
2023-01-10T02:24:37.013Z,6.07
2023-01-10T02:25:37.367Z,6.09
2023-01-10T02:26:37.722Z,6.09
2023-01-10T02:27:38.076Z,6.11
2023-01-10T02:28:38.475Z,6.11
2023-01-10T02:29:38.775Z,6.09
2023-01-10T02:30:39.159Z,6.09
2023-01-10T02:31:39.511Z,6.08
2023-01-10T02:32:50.382Z,6.07
2023-01-10T02:33:40.260Z,6.08
2023-01-10T02:34:40.589Z,6.11
2023-01-10T02:35:40.942Z,6.12
2023-01-10T02:36:41.300Z,6.14
2023-01-10T02:37:41.655Z,6.17
2023-01-10T02:38:42.045Z,6.17
2023-01-10T02:39:42.362Z,6.16
2023-01-10T02:40:42.761Z,6.16
2023-01-10T02:41:43.081Z,6.12
2023-01-10T02:42:43.456Z,6.11
2023-01-10T02:43:43.823Z,6.11
2023-01-10T02:44:44.203Z,6.11
2023-01-10T02:45:44.511Z,6.11
2023-01-10T02:46:44.965Z,6.11
2023-01-10T02:47:45.216Z,6.09
2023-01-10T02:48:45.592Z,6.08
2023-01-10T02:49:45.944Z,6.08
2023-01-10T02:50:46.307Z,6.09
2023-01-10T02:51:46.692Z,6.08
2023-01-10T02:52:46.998Z,6.08
2023-01-10T02:53:47.376Z,6.07
2023-01-10T02:54:47.730Z,6.07
2023-01-10T02:55:48.096Z,6.05
2023-01-10T02:56:48.456Z,6.02
2023-01-10T02:57:48.827Z,6.02
2023-01-10T02:58:49.214Z,6.01
2023-01-10T02:59:49.528Z,6.01
2023-01-10T03:00:50.017Z,5.99
2023-01-10T03:01:50.274Z,5.99
2023-01-10T03:02:50.615Z,5.98
2023-01-10T03:03:50.996Z,5.97
2023-01-10T03:04:51.422Z,5.97
2023-01-10T03:05:51.677Z,5.93
2023-01-10T03:06:52.067Z,5.91
2023-01-10T03:07:52.390Z,5.89
2023-01-10T03:08:52.775Z,5.89
2023-01-10T03:09:53.100Z,5.90
2023-01-10T03:10:53.463Z,5.86
2023-01-10T03:11:53.823Z,5.84
2023-01-10T03:12:54.203Z,5.82
2023-01-10T03:13:54.955Z,5.83
2023-01-10T03:14:54.887Z,5.82
2023-01-10T03:15:55.294Z,5.80
2023-01-10T03:16:55.603Z,5.82
2023-01-10T03:17:55.967Z,5.80
2023-01-10T03:18:56.348Z,5.76
2023-01-10T03:19:56.679Z,5.75
2023-01-10T03:20:57.070Z,5.75
2023-01-10T03:21:57.394Z,5.72
2023-01-10T03:22:57.735Z,5.72
2023-01-10T03:23:58.130Z,5.69
2023-01-10T03:24:58.470Z,5.68
2023-01-10T03:25:58.827Z,5.65
2023-01-10T03:26:59.182Z,5.65
2023-01-10T03:27:59.541Z,5.59
2023-01-10T03:28:59.942Z,5.56
2023-01-10T03:30:00.262Z,5.53
2023-01-10T03:31:00.774Z,5.51
2023-01-10T03:32:01.024Z,5.53
2023-01-10T03:33:01.332Z,5.54
2023-01-10T03:34:01.716Z,5.50
2023-01-10T03:35:02.074Z,5.59
2023-01-10T03:36:02.400Z,5.59
2023-01-10T03:37:02.742Z,5.54
2023-01-10T03:38:03.126Z,5.53
2023-01-10T03:39:03.482Z,5.51
2023-01-10T03:40:03.813Z,5.53
2023-01-10T03:41:04.162Z,5.51
2023-01-10T03:42:04.523Z,5.54
2023-01-10T03:43:04.890Z,5.56
2023-01-10T03:44:05.270Z,5.54
2023-01-10T03:45:05.588Z,5.56
2023-01-10T03:46:05.992Z,5.57
2023-01-10T03:47:06.321Z,5.56
2023-01-10T03:48:06.702Z,5.54
2023-01-10T03:49:07.046Z,5.57
2023-01-10T03:50:07.400Z,5.61
2023-01-10T03:51:07.759Z,5.59
2023-01-10T03:52:08.160Z,5.59
2023-01-10T03:53:08.497Z,5.57
2023-01-10T03:54:08.873Z,5.61
2023-01-10T03:55:09.181Z,5.62
2023-01-10T03:56:09.564Z,5.61
2023-01-10T03:57:09.923Z,5.61
2023-01-10T03:58:10.232Z,5.59
2023-01-10T03:59:10.648Z,5.56
2023-01-10T04:00:10.951Z,5.54
2023-01-10T04:01:11.351Z,5.53
2023-01-10T04:02:11.662Z,5.57
2023-01-10T04:03:12.026Z,5.57
2023-01-10T04:04:12.424Z,5.56
2023-01-10T04:05:12.747Z,5.56
2023-01-10T04:06:13.082Z,5.57
2023-01-10T04:07:13.439Z,5.61
2023-01-10T04:08:13.843Z,5.62
2023-01-10T04:09:14.224Z,5.65
2023-01-10T04:10:14.541Z,5.72
2023-01-10T04:11:14.903Z,5.75
2023-01-10T04:12:15.263Z,5.72
2023-01-10T04:13:16.972Z,5.71
2023-01-10T04:14:15.996Z,5.75
2023-01-10T04:15:16.327Z,5.79
2023-01-10T04:16:16.751Z,5.79
2023-01-10T04:17:17.040Z,5.80
2023-01-10T04:18:17.431Z,5.84
2023-01-10T04:19:17.780Z,5.86
2023-01-10T04:20:18.128Z,5.90
2023-01-10T04:21:18.499Z,5.93
2023-01-10T04:22:18.879Z,5.94
2023-01-10T04:23:19.221Z,5.97
2023-01-10T04:24:19.597Z,5.91
2023-01-10T04:25:19.900Z,5.91
2023-01-10T04:26:20.261Z,5.91
2023-01-10T04:27:20.629Z,5.91
2023-01-10T04:28:22.358Z,5.94
2023-01-10T04:29:21.399Z,5.97
2023-01-10T04:30:21.718Z,5.94
2023-01-10T04:31:22.128Z,5.94
2023-01-10T04:32:22.434Z,5.93
2023-01-10T04:33:22.803Z,5.94
2023-01-10T04:34:23.173Z,5.99
2023-01-10T04:35:23.513Z,5.98
2023-01-10T04:36:23.874Z,6.01
2023-01-10T04:37:24.250Z,6.01
2023-01-10T04:38:24.611Z,6.01
2023-01-10T04:39:25.041Z,6.02
2023-01-10T04:40:25.316Z,6.01
2023-01-10T04:41:25.683Z,5.99
2023-01-10T04:42:26.066Z,5.97
2023-01-10T04:43:26.391Z,5.94
2023-01-10T04:44:26.757Z,5.94
2023-01-10T04:45:27.175Z,5.91
2023-01-10T04:46:27.456Z,5.93
2023-01-10T04:47:27.816Z,5.91
2023-01-10T04:48:28.184Z,5.91
2023-01-10T04:49:28.575Z,5.90
2023-01-10T04:50:28.884Z,5.89
2023-01-10T04:51:29.248Z,5.89
2023-01-10T04:52:29.610Z,5.89
2023-01-10T04:53:29.968Z,5.89
2023-01-10T04:54:30.334Z,5.93
2023-01-10T04:55:30.701Z,5.91
2023-01-10T04:56:31.059Z,5.91
2023-01-10T04:57:31.416Z,5.94
2023-01-10T04:58:31.766Z,5.91
2023-01-10T04:59:32.194Z,5.91
2023-01-10T05:00:32.554Z,5.98
2023-01-10T05:01:32.926Z,5.98
2023-01-10T05:02:33.361Z,5.94
2023-01-10T05:03:33.512Z,5.97
2023-01-10T05:04:33.918Z,5.99
2023-01-10T05:05:34.352Z,5.99
2023-01-10T05:06:34.602Z,5.98
2023-01-10T05:07:35.102Z,5.94
2023-01-10T05:08:35.367Z,5.93
2023-01-10T05:09:35.745Z,5.91
2023-01-10T05:10:36.054Z,5.93
2023-01-10T05:11:36.426Z,5.91
2023-01-10T05:12:36.810Z,5.93
2023-01-10T05:13:37.154Z,5.93
2023-01-10T05:14:37.518Z,5.94
2023-01-10T05:15:37.875Z,5.94
2023-01-10T05:16:38.268Z,5.93
2023-01-10T05:17:38.588Z,5.90
2023-01-10T05:18:38.954Z,5.90
2023-01-10T05:19:39.355Z,5.89
2023-01-10T05:20:39.669Z,5.87
2023-01-10T05:21:40.017Z,5.87
2023-01-10T05:22:40.385Z,5.82
2023-01-10T05:23:40.750Z,5.82
2023-01-10T05:24:41.143Z,5.80
2023-01-10T05:25:41.456Z,5.76
2023-01-10T05:26:41.835Z,5.72
2023-01-10T05:27:42.182Z,5.72
2023-01-10T05:28:42.583Z,5.71
2023-01-10T05:29:42.898Z,5.68
2023-01-10T05:30:43.258Z,5.65
2023-01-10T05:31:43.649Z,5.65
2023-01-10T05:32:43.999Z,5.68
2023-01-10T05:33:44.311Z,5.68
2023-01-10T05:34:44.707Z,5.65
2023-01-10T05:35:45.024Z,5.64
2023-01-10T05:36:45.383Z,5.61
2023-01-10T05:37:45.776Z,5.64
2023-01-10T05:38:46.173Z,5.62
2023-01-10T05:39:46.508Z,5.61
2023-01-10T05:40:46.849Z,5.57
2023-01-10T05:41:47.201Z,5.53
2023-01-10T05:42:47.562Z,5.54
2023-01-10T05:43:47.942Z,5.56
2023-01-10T05:44:48.270Z,5.61
2023-01-10T05:45:48.677Z,5.62
2023-01-10T05:46:48.984Z,5.57
2023-01-10T05:47:49.341Z,5.51
2023-01-10T05:48:49.698Z,5.51
2023-01-10T05:49:50.094Z,5.50
2023-01-10T05:50:50.436Z,5.47
2023-01-10T05:51:50.787Z,5.44
2023-01-10T05:52:51.148Z,5.41
2023-01-10T05:53:51.511Z,5.43
2023-01-10T05:54:51.879Z,5.44
2023-01-10T05:55:52.193Z,5.44
2023-01-10T05:56:52.531Z,5.39
2023-01-10T05:57:52.904Z,5.36
2023-01-10T05:59:00.615Z,5.36
2023-01-10T05:59:53.647Z,5.33
2023-01-10T06:00:53.979Z,5.32
2023-01-10T06:01:54.377Z,5.33
2023-01-10T06:02:54.830Z,5.30
2023-01-10T06:03:55.052Z,5.29
2023-01-10T06:04:55.446Z,5.28
2023-01-10T06:05:55.741Z,5.25
2023-01-10T06:06:56.107Z,5.25
2023-01-10T06:07:56.458Z,5.23
2023-01-10T06:08:56.837Z,5.21
2023-01-10T06:09:57.232Z,5.20
2023-01-10T06:10:57.516Z,5.18
2023-01-10T06:11:57.878Z,5.18
2023-01-10T06:12:58.253Z,5.17
2023-01-10T06:13:58.602Z,5.15
2023-01-10T06:14:58.975Z,5.14
2023-01-10T06:15:59.405Z,5.11
2023-01-10T06:16:59.661Z,5.14
2023-01-10T06:18:00.052Z,5.11
2023-01-10T06:19:00.419Z,5.10
2023-01-10T06:20:00.792Z,5.12
2023-01-10T06:21:00.985Z,5.12
2023-01-10T06:22:01.381Z,5.08
2023-01-10T06:23:01.740Z,5.08
2023-01-10T06:24:02.142Z,5.11
2023-01-10T06:25:02.744Z,5.11
2023-01-10T06:26:02.865Z,5.12
2023-01-10T06:27:03.182Z,5.14
2023-01-10T06:28:03.527Z,5.15
2023-01-10T06:29:03.891Z,5.15
2023-01-10T06:30:04.299Z,5.14
2023-01-10T06:31:04.718Z,5.15
2023-01-10T06:32:04.966Z,5.17
2023-01-10T06:33:05.336Z,5.21
2023-01-10T06:34:05.684Z,5.23
2023-01-10T06:35:06.077Z,5.29
2023-01-10T06:36:06.414Z,5.32
2023-01-10T06:37:06.769Z,5.33
2023-01-10T06:38:07.151Z,5.36
2023-01-10T06:39:07.488Z,5.35
2023-01-10T06:40:07.878Z,5.35
2023-01-10T06:41:08.191Z,5.35
2023-01-10T06:42:08.549Z,5.33
2023-01-10T06:43:08.901Z,5.35
2023-01-10T06:44:09.266Z,5.41
2023-01-10T06:45:09.652Z,5.43
2023-01-10T06:46:10.182Z,5.41
2023-01-10T06:47:10.337Z,5.41
2023-01-10T06:48:10.680Z,5.43
2023-01-10T06:49:11.042Z,5.43
2023-01-10T06:50:11.417Z,5.44
2023-01-10T06:51:11.782Z,5.47
2023-01-10T06:52:12.160Z,5.51
2023-01-10T06:53:12.501Z,5.50
2023-01-10T06:54:12.879Z,5.48
2023-01-10T06:55:13.291Z,5.53
2023-01-10T06:56:13.587Z,5.54
2023-01-10T06:57:13.812Z,5.56
2023-01-10T06:58:14.081Z,5.57
2023-01-10T06:59:14.365Z,5.57
2023-01-10T07:00:14.686Z,5.59
2023-01-10T07:01:15.132Z,5.59
2023-01-10T07:02:15.363Z,5.62
2023-01-10T07:03:15.521Z,5.66
2023-01-10T07:04:15.908Z,5.66
2023-01-10T07:05:16.157Z,5.66
2023-01-10T07:06:16.375Z,5.66
2023-01-10T07:07:16.692Z,5.66
2023-01-10T07:08:16.973Z,5.66
2023-01-10T07:09:17.273Z,5.66
2023-01-10T07:10:17.457Z,5.69
2023-01-10T07:11:17.617Z,5.69
2023-01-10T07:12:17.898Z,5.69
2023-01-10T07:13:18.079Z,5.71
2023-01-10T07:14:18.371Z,5.71
2023-01-10T07:15:18.683Z,5.71
2023-01-10T07:16:19.045Z,5.68
2023-01-10T07:17:19.234Z,5.66
2023-01-10T07:18:19.508Z,5.72
2023-01-10T07:19:19.805Z,5.75
2023-01-10T07:20:20.114Z,5.72
2023-01-10T07:21:20.405Z,5.73
2023-01-10T07:22:20.653Z,5.73
2023-01-10T07:23:20.968Z,5.75
2023-01-10T07:24:21.127Z,5.79
2023-01-10T07:25:21.459Z,5.76
2023-01-10T07:26:21.742Z,5.76
2023-01-10T07:27:22.023Z,5.75
2023-01-10T07:28:22.318Z,5.72
2023-01-10T07:29:22.618Z,5.73
2023-01-10T07:30:24.973Z,5.72
2023-01-10T07:31:23.206Z,5.69
2023-01-10T07:32:23.103Z,5.71
2023-01-10T07:33:23.281Z,5.69
2023-01-10T07:34:23.433Z,5.65
2023-01-10T07:35:23.640Z,5.66
2023-01-10T07:36:23.798Z,5.66
2023-01-10T07:37:24.005Z,5.68
2023-01-10T07:38:24.173Z,5.64
2023-01-10T07:39:24.331Z,5.66
2023-01-10T07:40:24.530Z,5.64
2023-01-10T07:41:24.721Z,5.62
2023-01-10T07:42:24.899Z,5.62
2023-01-10T07:43:25.036Z,5.62
2023-01-10T07:44:25.192Z,5.61
2023-01-10T07:45:25.382Z,5.57
2023-01-10T07:46:25.644Z,5.61
2023-01-10T07:47:25.716Z,5.64
2023-01-10T07:48:26.022Z,5.64
2023-01-10T07:49:26.193Z,5.64
2023-01-10T07:50:26.529Z,5.65
2023-01-10T07:51:26.523Z,5.64
2023-01-10T07:52:26.718Z,5.65
2023-01-10T07:53:26.887Z,5.64
2023-01-10T07:54:27.040Z,5.65
2023-01-10T07:55:27.243Z,5.64
2023-01-10T07:56:27.400Z,5.64
2023-01-10T07:57:27.592Z,5.65
2023-01-10T07:58:27.762Z,5.64
2023-01-10T07:59:27.937Z,5.66
2023-01-10T08:00:28.181Z,5.65
2023-01-10T08:01:28.368Z,5.64
2023-01-10T08:02:28.588Z,5.65
2023-01-10T08:03:28.917Z,5.62
2023-01-10T08:04:28.932Z,5.64
2023-01-10T08:05:29.235Z,5.62
2023-01-10T08:06:29.276Z,5.65
2023-01-10T08:07:29.454Z,5.65
2023-01-10T08:08:29.642Z,5.65
2023-01-10T08:09:29.809Z,5.68
2023-01-10T08:10:30.007Z,5.68
2023-01-10T08:11:30.173Z,5.68
2023-01-10T08:12:30.341Z,5.71
2023-01-10T08:13:30.533Z,5.71
2023-01-10T08:14:30.782Z,5.72
2023-01-10T08:15:30.889Z,5.73
2023-01-10T08:16:31.043Z,5.75
2023-01-10T08:17:31.235Z,5.75
2023-01-10T08:18:31.413Z,5.80
2023-01-10T08:19:31.594Z,5.83
2023-01-10T08:20:31.795Z,5.83
2023-01-10T08:21:31.944Z,5.83
2023-01-10T08:22:32.203Z,5.84
2023-01-10T08:23:32.351Z,5.87
2023-01-10T08:24:32.456Z,5.87
2023-01-10T08:25:32.720Z,5.90
2023-01-10T08:26:32.816Z,5.90
2023-01-10T08:27:32.992Z,5.91
2023-01-10T08:28:33.188Z,5.93
2023-01-10T08:29:33.378Z,5.93
2023-01-10T08:30:33.551Z,5.94
2023-01-10T08:31:33.728Z,5.97
2023-01-10T08:32:33.914Z,5.98
2023-01-10T08:33:34.080Z,5.99
2023-01-10T08:34:34.260Z,5.99
2023-01-10T08:35:34.547Z,6.04
2023-01-10T08:36:34.710Z,6.05
2023-01-10T08:37:34.899Z,6.07
2023-01-10T08:38:35.065Z,6.08
2023-01-10T08:39:35.252Z,6.09
2023-01-10T08:40:35.426Z,6.09
2023-01-10T08:41:35.571Z,6.11
2023-01-10T08:42:35.796Z,6.12
2023-01-10T08:43:35.913Z,6.12
2023-01-10T08:44:36.099Z,6.14
2023-01-10T08:45:36.311Z,6.16
2023-01-10T08:46:36.617Z,6.16
2023-01-10T08:47:37.486Z,6.19
2023-01-10T08:48:37.052Z,6.22
2023-01-10T08:49:37.219Z,6.20
2023-01-10T08:50:37.558Z,6.24
2023-01-10T08:51:37.693Z,6.26
2023-01-10T08:52:37.892Z,6.24
2023-01-10T08:53:38.083Z,6.26
2023-01-10T08:54:38.254Z,6.28
2023-01-10T08:55:38.464Z,6.27
2023-01-10T08:56:38.632Z,6.27
2023-01-10T08:57:38.803Z,6.26
2023-01-10T08:58:38.963Z,6.26
2023-01-10T08:59:39.121Z,6.26
2023-01-10T09:00:39.358Z,6.28
2023-01-10T09:01:39.627Z,6.27
2023-01-10T09:02:39.797Z,6.28
2023-01-10T09:03:39.967Z,6.28
2023-01-10T09:04:40.209Z,6.31
2023-01-10T09:05:40.480Z,6.30
2023-01-10T09:06:40.621Z,6.36
2023-01-10T09:07:40.812Z,6.39
2023-01-10T09:08:41.030Z,6.45
2023-01-10T09:09:41.186Z,6.46
2023-01-10T09:10:41.370Z,6.46
2023-01-10T09:11:42.042Z,6.42
2023-01-10T09:12:41.852Z,6.44
2023-01-10T09:13:42.000Z,6.44
2023-01-10T09:14:42.239Z,6.45
2023-01-10T09:15:42.544Z,6.41
2023-01-10T09:16:43.041Z,6.41
2023-01-10T09:17:42.970Z,6.39
2023-01-10T09:18:43.261Z,6.42
2023-01-10T09:19:43.474Z,6.38
2023-01-10T09:20:43.785Z,6.38
2023-01-10T09:21:43.962Z,6.49
2023-01-10T09:22:44.257Z,6.49
2023-01-10T09:23:44.430Z,6.45
2023-01-10T09:24:44.723Z,6.45
2023-01-10T09:25:45.057Z,6.45
2023-01-10T09:26:45.316Z,6.45
2023-01-10T09:27:45.623Z,6.45
2023-01-10T09:28:48.683Z,6.48
2023-01-10T09:29:46.115Z,6.51
2023-01-10T09:30:46.293Z,6.54
2023-01-10T09:31:46.544Z,6.48
2023-01-10T09:32:46.675Z,6.46
2023-01-10T09:33:47.711Z,6.49
2023-01-10T09:34:47.130Z,6.45
2023-01-10T09:35:47.341Z,6.46
2023-01-10T09:36:47.605Z,6.52
2023-01-10T09:37:47.801Z,6.52
2023-01-10T09:38:47.993Z,6.51
2023-01-10T09:39:48.182Z,6.49
2023-01-10T09:40:48.529Z,6.52
2023-01-10T09:41:48.550Z,6.56
2023-01-10T09:42:48.855Z,6.56
2023-01-10T09:43:49.017Z,6.59
2023-01-10T09:44:49.201Z,6.59
2023-01-10T09:45:49.458Z,6.57
2023-01-10T09:46:49.671Z,6.57
2023-01-10T09:47:49.881Z,6.62
2023-01-10T09:48:50.100Z,6.60
2023-01-10T09:49:50.402Z,6.60
2023-01-10T09:50:50.571Z,6.59
2023-01-10T09:51:50.877Z,6.57
2023-01-10T09:52:51.178Z,6.60
2023-01-10T09:53:53.623Z,6.59
2023-01-10T09:54:51.651Z,6.59
2023-01-10T09:55:51.962Z,6.56
2023-01-10T09:56:52.292Z,6.56
2023-01-10T09:57:52.450Z,6.54
2023-01-10T09:58:52.628Z,6.54
2023-01-10T09:59:52.825Z,6.56
2023-01-10T10:00:53.053Z,6.51
2023-01-10T10:01:53.165Z,6.52
2023-01-10T10:02:53.506Z,6.52
2023-01-10T10:03:53.955Z,6.52
2023-01-10T10:04:53.974Z,6.54
2023-01-10T10:06:03.748Z,6.56
2023-01-10T10:06:54.443Z,6.56
2023-01-10T10:07:54.620Z,6.57
2023-01-10T10:08:54.845Z,6.60
2023-01-10T10:09:55.107Z,6.62
2023-01-10T10:10:55.323Z,6.62
2023-01-10T10:11:55.474Z,6.63
2023-01-10T10:12:55.778Z,6.63
2023-01-10T10:13:55.957Z,6.64
2023-01-10T10:14:56.170Z,6.63
2023-01-10T10:15:58.540Z,6.62
2023-01-10T10:16:56.747Z,6.63
2023-01-10T10:17:56.980Z,6.64
2023-01-10T10:18:57.119Z,6.64
2023-01-10T10:19:57.424Z,6.66
2023-01-10T10:20:57.586Z,6.66
2023-01-10T10:21:57.748Z,6.66
2023-01-10T10:22:58.058Z,6.66
2023-01-10T10:23:58.351Z,6.64
2023-01-10T10:24:58.590Z,6.67
2023-01-10T10:25:58.762Z,6.69
2023-01-10T10:26:58.887Z,6.67
2023-01-10T10:27:59.059Z,6.69
2023-01-10T10:28:59.279Z,6.72
2023-01-10T10:29:59.488Z,6.70
2023-01-10T10:30:59.631Z,6.72
2023-01-10T10:32:00.539Z,6.72
2023-01-10T10:32:59.962Z,6.75
2023-01-10T10:34:00.162Z,6.72
2023-01-10T10:35:00.460Z,6.74
2023-01-10T10:36:00.674Z,6.74
2023-01-10T10:37:00.790Z,6.72
2023-01-10T10:38:01.013Z,6.74
2023-01-10T10:39:01.183Z,6.74
2023-01-10T10:40:01.442Z,6.72
2023-01-10T10:41:01.764Z,6.72
2023-01-10T10:42:01.813Z,6.74
2023-01-10T10:43:02.155Z,6.74
2023-01-10T10:44:02.467Z,6.75
2023-01-10T10:45:02.609Z,6.74
2023-01-10T10:46:02.958Z,6.74
2023-01-10T10:47:03.057Z,6.75
2023-01-10T10:48:03.253Z,6.78
2023-01-10T10:49:03.544Z,6.84
2023-01-10T10:50:03.732Z,6.84
2023-01-10T10:51:03.956Z,6.87
2023-01-10T10:52:04.099Z,6.88
2023-01-10T10:53:04.295Z,6.89
2023-01-10T10:54:04.505Z,6.89
2023-01-10T10:55:04.776Z,6.93
2023-01-10T10:56:04.973Z,6.93
2023-01-10T10:57:05.223Z,6.95
2023-01-10T10:58:05.390Z,6.93
2023-01-10T10:59:05.596Z,6.95
2023-01-10T11:00:05.755Z,6.95
2023-01-10T11:01:06.115Z,6.95
2023-01-10T11:02:06.211Z,6.96
2023-01-10T11:03:06.334Z,6.97
2023-01-10T11:04:06.460Z,6.97
2023-01-10T11:05:06.669Z,6.99
2023-01-10T11:06:06.834Z,6.99
2023-01-10T11:07:06.996Z,7.00
2023-01-10T11:08:07.161Z,7.00
2023-01-10T11:09:07.372Z,6.97
2023-01-10T11:10:07.658Z,6.99
2023-01-10T11:11:07.861Z,7.00
2023-01-10T11:12:08.151Z,6.99
2023-01-10T11:13:08.470Z,7.00
2023-01-10T11:14:08.632Z,6.97
2023-01-10T11:15:08.957Z,6.99
2023-01-10T11:16:09.184Z,7.02
2023-01-10T11:17:09.269Z,7.03
2023-01-10T11:18:09.471Z,7.02
2023-01-10T11:19:09.654Z,7.02
2023-01-10T11:20:09.839Z,6.99
2023-01-10T11:21:10.057Z,7.00
2023-01-10T11:22:10.222Z,7.02
2023-01-10T11:23:10.379Z,6.99
2023-01-10T11:24:10.585Z,7.00
2023-01-10T11:25:10.802Z,7.02
2023-01-10T11:26:11.097Z,7.02
2023-01-10T11:27:11.242Z,7.03
2023-01-10T11:28:11.439Z,7.03
2023-01-10T11:29:11.620Z,7.05
2023-01-10T11:30:11.811Z,7.05
2023-01-10T11:31:12.029Z,7.06
2023-01-10T11:32:12.186Z,7.07
2023-01-10T11:33:12.356Z,7.07
2023-01-10T11:34:12.533Z,7.10
2023-01-10T11:35:12.836Z,7.07
2023-01-10T11:36:13.060Z,7.10
2023-01-10T11:37:13.235Z,7.14
2023-01-10T11:38:13.456Z,7.13
2023-01-10T11:39:13.623Z,7.13
2023-01-10T11:40:13.888Z,7.14
2023-01-10T11:41:13.972Z,7.15
2023-01-10T11:42:14.278Z,7.14
2023-01-10T11:43:14.422Z,7.15
2023-01-10T11:44:14.620Z,7.17
2023-01-10T11:45:14.931Z,7.20
2023-01-10T11:46:15.295Z,7.21
2023-01-10T11:47:15.409Z,7.17
2023-01-10T11:48:17.242Z,7.21
2023-01-10T11:49:15.907Z,7.25
2023-01-10T11:50:16.222Z,7.28
2023-01-10T11:51:16.515Z,7.28
2023-01-10T11:52:16.667Z,7.31
2023-01-10T11:53:16.884Z,7.32
2023-01-10T11:54:17.041Z,7.33
2023-01-10T11:55:17.235Z,7.29
2023-01-10T11:56:17.412Z,7.32
2023-01-10T11:57:17.570Z,7.32
2023-01-10T11:58:17.871Z,7.32
2023-01-10T11:59:18.092Z,7.33
2023-01-10T12:00:18.241Z,7.33
2023-01-10T12:01:18.489Z,7.35
2023-01-10T12:02:18.587Z,7.38
2023-01-10T12:03:18.894Z,7.36
2023-01-10T12:04:19.163Z,7.38
2023-01-10T12:05:19.522Z,7.36
2023-01-10T12:06:19.575Z,7.35
2023-01-10T12:07:19.710Z,7.38
2023-01-10T12:08:19.867Z,7.36
2023-01-10T12:09:20.075Z,7.36
2023-01-10T12:10:21.156Z,7.38
2023-01-10T12:11:20.424Z,7.35
2023-01-10T12:12:20.628Z,7.38
2023-01-10T12:13:20.778Z,7.40
2023-01-10T12:14:20.983Z,7.43
2023-01-10T12:15:21.155Z,7.42
2023-01-10T12:16:21.395Z,7.43
2023-01-10T12:17:21.657Z,7.42
2023-01-10T12:18:21.843Z,7.45
2023-01-10T12:19:22.005Z,7.48
2023-01-10T12:20:22.290Z,7.47
2023-01-10T12:21:22.550Z,7.50
2023-01-10T12:22:22.800Z,7.53
2023-01-10T12:23:22.955Z,7.54
2023-01-10T12:24:23.149Z,7.58
2023-01-10T12:25:23.449Z,7.57
2023-01-10T12:26:23.688Z,7.56
2023-01-10T12:27:23.959Z,7.53
2023-01-10T12:28:24.157Z,7.53
2023-01-10T12:29:24.342Z,7.51
2023-01-10T12:30:24.778Z,7.53
2023-01-10T12:31:24.880Z,7.51
2023-01-10T12:32:25.008Z,7.48
2023-01-10T12:33:25.317Z,7.50
2023-01-10T12:34:25.625Z,7.50
2023-01-10T12:35:25.817Z,7.50
2023-01-10T12:36:26.015Z,7.50
2023-01-10T12:37:26.174Z,7.50
2023-01-10T12:38:26.499Z,7.50
2023-01-10T12:39:26.670Z,7.51
2023-01-10T12:40:26.978Z,7.50
2023-01-10T12:41:27.143Z,7.51
2023-01-10T12:42:27.325Z,7.50
2023-01-10T12:43:27.475Z,7.51
2023-01-10T12:44:27.643Z,7.53
2023-01-10T12:45:27.985Z,7.51
2023-01-10T12:46:56.637Z,7.56
2023-01-10T12:47:28.490Z,7.61
2023-01-10T12:48:28.727Z,7.70
2023-01-10T12:49:28.917Z,7.63
2023-01-10T12:50:29.162Z,7.63
2023-01-10T12:51:29.339Z,7.69
2023-01-10T12:52:29.445Z,7.72
2023-01-10T12:53:29.653Z,7.76
2023-01-10T12:54:29.830Z,7.75
2023-01-10T12:55:30.017Z,7.77
2023-01-10T12:56:30.201Z,7.79
2023-01-10T12:57:30.423Z,7.75
2023-01-10T12:58:30.681Z,7.80
2023-01-10T12:59:37.403Z,7.85
2023-01-10T13:00:34.915Z,7.83
2023-01-10T13:01:31.518Z,7.80
2023-01-10T13:02:31.584Z,7.77
2023-01-10T13:03:33.448Z,7.73
2023-01-10T13:04:32.081Z,7.77
2023-01-10T13:05:32.147Z,7.80
2023-01-10T13:06:32.363Z,7.87
2023-01-10T13:07:32.531Z,7.90
2023-01-10T13:08:32.820Z,7.91
2023-01-10T13:09:33.141Z,7.91
2023-01-10T13:10:33.311Z,7.95
2023-01-10T13:11:33.472Z,7.97
2023-01-10T13:12:33.767Z,7.98
2023-01-10T13:13:33.942Z,8.03
2023-01-10T13:14:34.129Z,7.98
2023-01-10T13:15:34.472Z,7.95
2023-01-10T13:16:34.614Z,7.95
2023-01-10T13:17:34.756Z,7.91
2023-01-10T13:18:35.041Z,7.87
2023-01-10T13:19:35.237Z,7.90
2023-01-10T13:20:35.457Z,7.85
2023-01-10T13:21:35.750Z,7.80
2023-01-10T13:22:36.038Z,7.77